sensor_id;sensor_type;location;lat;lon;timestamp;temperature;humidity
51619;DHT22;38518;53.164;5.430;2023-03-04T00:01:50;7.20;6.00
51619;DHT22;38518;53.164;5.430;2023-03-04T00:04:16;6.20;1.00
51619;DHT22;38518;53.164;5.430;2023-03-04T00:06:42;5.80;1.00
51619;DHT22;38518;53.164;5.430;2023-03-04T00:09:08;6.00;1.00
51619;DHT22;38518;53.164;5.430;2023-03-04T00:11:34;6.40;1.00
51619;DHT22;38518;53.164;5.430;2023-03-04T00:14:00;6.20;1.00
51619;DHT22;38518;53.164;5.430;2023-03-04T00:16:26;6.10;1.00
51619;DHT22;38518;53.164;5.430;2023-03-04T00:18:55;5.50;1.00
51619;DHT22;38518;53.164;5.430;2023-03-04T00:21:22;5.70;1.00
51619;DHT22;38518;53.164;5.430;2023-03-04T00:23:48;6.50;1.00
51619;DHT22;38518;53.164;5.430;2023-03-04T00:26:15;6.50;1.00
51619;DHT22;38518;53.164;5.430;2023-03-04T00:28:43;6.00;1.00
51619;DHT22;38518;53.164;5.430;2023-03-04T00:31:14;6.00;1.00
51619;DHT22;38518;53.164;5.430;2023-03-04T00:33:40;6.30;1.00
51619;DHT22;38518;53.164;5.430;2023-03-04T00:36:08;6.20;1.00
51619;DHT22;38518;53.164;5.430;2023-03-04T00:38:33;5.90;1.00
51619;DHT22;38518;53.164;5.430;2023-03-04T00:40:59;5.80;1.00
51619;DHT22;38518;53.164;5.430;2023-03-04T00:43:25;5.90;1.00
51619;DHT22;38518;53.164;5.430;2023-03-04T00:45:51;6.30;1.00
51619;DHT22;38518;53.164;5.430;2023-03-04T00:48:17;6.20;1.00
51619;DHT22;38518;53.164;5.430;2023-03-04T00:50:43;5.90;1.00
51619;DHT22;38518;53.164;5.430;2023-03-04T00:53:09;5.90;1.00
51619;DHT22;38518;53.164;5.430;2023-03-04T00:55:35;5.90;1.00
51619;DHT22;38518;53.164;5.430;2023-03-04T00:58:01;6.10;1.00
51619;DHT22;38518;53.164;5.430;2023-03-04T01:00:28;7.10;1.00
51619;DHT22;38518;53.164;5.430;2023-03-04T01:05:20;5.90;1.00
51619;DHT22;38518;53.164;5.430;2023-03-04T01:07:46;6.30;1.00
51619;DHT22;38518;53.164;5.430;2023-03-04T01:10:13;5.80;1.00
51619;DHT22;38518;53.164;5.430;2023-03-04T01:12:42;6.20;1.00
51619;DHT22;38518;53.164;5.430;2023-03-04T01:15:09;6.10;14.50
51619;DHT22;38518;53.164;5.430;2023-03-04T01:17:36;5.80;7.60
51619;DHT22;38518;53.164;5.430;2023-03-04T01:20:02;5.80;18.40
51619;DHT22;38518;53.164;5.430;2023-03-04T01:22:28;5.80;1.00
51619;DHT22;38518;53.164;5.430;2023-03-04T01:24:54;6.60;4.50
51619;DHT22;38518;53.164;5.430;2023-03-04T01:27:20;6.40;3.50
51619;DHT22;38518;53.164;5.430;2023-03-04T01:29:45;5.80;1.00
51619;DHT22;38518;53.164;5.430;2023-03-04T01:32:11;5.70;1.00
51619;DHT22;38518;53.164;5.430;2023-03-04T01:34:37;6.10;1.00
51619;DHT22;38518;53.164;5.430;2023-03-04T01:37:03;5.80;1.00
51619;DHT22;38518;53.164;5.430;2023-03-04T01:39:28;5.70;1.00
51619;DHT22;38518;53.164;5.430;2023-03-04T01:41:54;5.80;1.00
51619;DHT22;38518;53.164;5.430;2023-03-04T01:44:20;5.90;1.00
51619;DHT22;38518;53.164;5.430;2023-03-04T01:46:49;6.00;1.00
51619;DHT22;38518;53.164;5.430;2023-03-04T01:49:16;6.00;1.00
51619;DHT22;38518;53.164;5.430;2023-03-04T01:51:45;5.70;1.00
51619;DHT22;38518;53.164;5.430;2023-03-04T01:54:13;6.00;1.00
51619;DHT22;38518;53.164;5.430;2023-03-04T01:56:39;6.60;1.00
51619;DHT22;38518;53.164;5.430;2023-03-04T01:59:27;6.20;1.00
51619;DHT22;38518;53.164;5.430;2023-03-04T02:01:57;6.20;1.00
51619;DHT22;38518;53.164;5.430;2023-03-04T02:04:26;5.90;1.00
51619;DHT22;38518;53.164;5.430;2023-03-04T02:06:53;6.20;1.00
51619;DHT22;38518;53.164;5.430;2023-03-04T02:09:20;6.20;1.00
51619;DHT22;38518;53.164;5.430;2023-03-04T02:11:47;5.70;1.00
51619;DHT22;38518;53.164;5.430;2023-03-04T02:14:14;5.90;1.00
51619;DHT22;38518;53.164;5.430;2023-03-04T02:16:40;5.80;1.00
51619;DHT22;38518;53.164;5.430;2023-03-04T02:19:41;5.90;1.00
51619;DHT22;38518;53.164;5.430;2023-03-04T02:22:09;5.70;1.00
51619;DHT22;38518;53.164;5.430;2023-03-04T02:24:40;5.70;1.00
51619;DHT22;38518;53.164;5.430;2023-03-04T02:27:07;5.70;1.00
51619;DHT22;38518;53.164;5.430;2023-03-04T02:29:33;5.70;1.00
51619;DHT22;38518;53.164;5.430;2023-03-04T02:31:59;5.80;1.00
51619;DHT22;38518;53.164;5.430;2023-03-04T02:34:31;5.80;1.00
51619;DHT22;38518;53.164;5.430;2023-03-04T02:36:58;6.50;1.00
51619;DHT22;38518;53.164;5.430;2023-03-04T02:39:33;6.00;1.00
51619;DHT22;38518;53.164;5.430;2023-03-04T02:42:01;5.80;1.00
51619;DHT22;38518;53.164;5.430;2023-03-04T02:44:29;6.20;1.00
51619;DHT22;38518;53.164;5.430;2023-03-04T02:46:56;6.20;1.00
51619;DHT22;38518;53.164;5.430;2023-03-04T02:49:23;5.80;1.00
51619;DHT22;38518;53.164;5.430;2023-03-04T02:51:51;6.00;1.00
51619;DHT22;38518;53.164;5.430;2023-03-04T02:54:20;5.70;1.00
51619;DHT22;38518;53.164;5.430;2023-03-04T02:56:48;6.10;1.00
51619;DHT22;38518;53.164;5.430;2023-03-04T02:59:15;6.00;1.00
51619;DHT22;38518;53.164;5.430;2023-03-04T03:01:41;5.90;1.00
51619;DHT22;38518;53.164;5.430;2023-03-04T03:04:07;6.10;1.00
51619;DHT22;38518;53.164;5.430;2023-03-04T03:06:33;6.10;1.00
51619;DHT22;38518;53.164;5.430;2023-03-04T03:08:59;6.00;1.00
51619;DHT22;38518;53.164;5.430;2023-03-04T03:11:25;6.30;1.00
51619;DHT22;38518;53.164;5.430;2023-03-04T03:13:50;6.30;2.50
51619;DHT22;38518;53.164;5.430;2023-03-04T03:16:16;6.00;10.10
51619;DHT22;38518;53.164;5.430;2023-03-04T03:18:42;5.80;12.90
51619;DHT22;38518;53.164;5.430;2023-03-04T03:21:08;6.30;4.80
51619;DHT22;38518;53.164;5.430;2023-03-04T03:23:34;5.90;10.60
51619;DHT22;38518;53.164;5.430;2023-03-04T03:26:00;6.00;3.20
51619;DHT22;38518;53.164;5.430;2023-03-04T03:28:27;5.90;1.00
51619;DHT22;38518;53.164;5.430;2023-03-04T03:30:53;5.90;1.00
51619;DHT22;38518;53.164;5.430;2023-03-04T03:33:19;6.20;1.00
51619;DHT22;38518;53.164;5.430;2023-03-04T03:35:45;6.10;3.30
51619;DHT22;38518;53.164;5.430;2023-03-04T03:38:11;5.70;1.00
51619;DHT22;38518;53.164;5.430;2023-03-04T03:40:37;6.00;4.10
51619;DHT22;38518;53.164;5.430;2023-03-04T03:43:03;6.30;5.00
51619;DHT22;38518;53.164;5.430;2023-03-04T03:45:28;7.10;7.40
51619;DHT22;38518;53.164;5.430;2023-03-04T03:47:54;6.60;5.60
51619;DHT22;38518;53.164;5.430;2023-03-04T03:50:20;6.40;8.00
51619;DHT22;38518;53.164;5.430;2023-03-04T03:52:46;5.80;8.70
51619;DHT22;38518;53.164;5.430;2023-03-04T03:55:12;6.00;18.10
51619;DHT22;38518;53.164;5.430;2023-03-04T03:57:37;6.20;17.40
51619;DHT22;38518;53.164;5.430;2023-03-04T04:00:05;5.90;20.40
51619;DHT22;38518;53.164;5.430;2023-03-04T04:02:31;5.90;16.10
51619;DHT22;38518;53.164;5.430;2023-03-04T04:04:56;5.90;23.80
51619;DHT22;38518;53.164;5.430;2023-03-04T04:07:22;6.20;22.80
51619;DHT22;38518;53.164;5.430;2023-03-04T04:09:48;5.50;21.00
51619;DHT22;38518;53.164;5.430;2023-03-04T04:12:15;6.30;22.80
51619;DHT22;38518;53.164;5.430;2023-03-04T04:14:42;6.10;16.40
51619;DHT22;38518;53.164;5.430;2023-03-04T04:17:08;6.10;18.70
51619;DHT22;38518;53.164;5.430;2023-03-04T04:19:34;5.80;23.70
51619;DHT22;38518;53.164;5.430;2023-03-04T04:22:01;6.00;41.30
51619;DHT22;38518;53.164;5.430;2023-03-04T04:24:26;6.30;35.20
51619;DHT22;38518;53.164;5.430;2023-03-04T04:26:52;6.00;57.50
51619;DHT22;38518;53.164;5.430;2023-03-04T04:29:18;6.50;50.50
51619;DHT22;38518;53.164;5.430;2023-03-04T04:31:44;5.60;52.40
51619;DHT22;38518;53.164;5.430;2023-03-04T04:34:10;6.70;58.50
51619;DHT22;38518;53.164;5.430;2023-03-04T04:36:36;6.50;56.00
51619;DHT22;38518;53.164;5.430;2023-03-04T04:39:02;6.10;71.70
51619;DHT22;38518;53.164;5.430;2023-03-04T04:41:31;5.90;64.90
51619;DHT22;38518;53.164;5.430;2023-03-04T04:43:59;5.70;55.80
51619;DHT22;38518;53.164;5.430;2023-03-04T04:46:25;6.50;61.80
51619;DHT22;38518;53.164;5.430;2023-03-04T04:48:51;5.80;74.10
51619;DHT22;38518;53.164;5.430;2023-03-04T04:51:17;5.90;82.90
51619;DHT22;38518;53.164;5.430;2023-03-04T04:53:43;5.90;79.70
51619;DHT22;38518;53.164;5.430;2023-03-04T04:56:17;5.90;87.50
51619;DHT22;38518;53.164;5.430;2023-03-04T04:58:45;5.80;75.10
51619;DHT22;38518;53.164;5.430;2023-03-04T05:01:11;6.20;77.40
51619;DHT22;38518;53.164;5.430;2023-03-04T05:03:37;5.80;83.00
51619;DHT22;38518;53.164;5.430;2023-03-04T05:06:05;6.40;88.10
51619;DHT22;38518;53.164;5.430;2023-03-04T05:08:31;6.10;82.00
51619;DHT22;38518;53.164;5.430;2023-03-04T05:10:57;6.00;93.60
51619;DHT22;38518;53.164;5.430;2023-03-04T05:13:23;6.10;96.10
51619;DHT22;38518;53.164;5.430;2023-03-04T05:15:53;6.60;98.30
51619;DHT22;38518;53.164;5.430;2023-03-04T05:18:20;6.00;99.90
51619;DHT22;38518;53.164;5.430;2023-03-04T05:20:51;6.10;99.90
51619;DHT22;38518;53.164;5.430;2023-03-04T05:23:17;6.90;99.90
51619;DHT22;38518;53.164;5.430;2023-03-04T05:25:43;6.10;99.90
51619;DHT22;38518;53.164;5.430;2023-03-04T05:28:09;5.80;99.90
51619;DHT22;38518;53.164;5.430;2023-03-04T05:30:41;5.90;99.90
51619;DHT22;38518;53.164;5.430;2023-03-04T05:33:08;5.70;99.90
51619;DHT22;38518;53.164;5.430;2023-03-04T05:35:35;5.80;99.90
51619;DHT22;38518;53.164;5.430;2023-03-04T05:38:02;6.10;99.90
51619;DHT22;38518;53.164;5.430;2023-03-04T05:40:28;6.20;99.90
51619;DHT22;38518;53.164;5.430;2023-03-04T05:42:54;6.00;99.90
51619;DHT22;38518;53.164;5.430;2023-03-04T05:45:21;5.80;99.90
51619;DHT22;38518;53.164;5.430;2023-03-04T05:47:47;5.80;99.90
51619;DHT22;38518;53.164;5.430;2023-03-04T05:50:13;5.60;99.90
51619;DHT22;38518;53.164;5.430;2023-03-04T05:52:39;6.10;99.90
51619;DHT22;38518;53.164;5.430;2023-03-04T05:55:05;6.40;99.90
51619;DHT22;38518;53.164;5.430;2023-03-04T05:57:31;7.60;99.90
51619;DHT22;38518;53.164;5.430;2023-03-04T05:59:57;5.70;99.90
51619;DHT22;38518;53.164;5.430;2023-03-04T06:02:23;5.40;99.90
51619;DHT22;38518;53.164;5.430;2023-03-04T06:04:49;6.00;99.90
51619;DHT22;38518;53.164;5.430;2023-03-04T06:07:14;5.40;99.90
51619;DHT22;38518;53.164;5.430;2023-03-04T06:09:40;5.80;99.90
51619;DHT22;38518;53.164;5.430;2023-03-04T06:12:10;5.80;99.90
51619;DHT22;38518;53.164;5.430;2023-03-04T06:14:36;5.80;99.90
51619;DHT22;38518;53.164;5.430;2023-03-04T06:17:01;6.30;99.90
51619;DHT22;38518;53.164;5.430;2023-03-04T06:19:29;5.70;99.90
51619;DHT22;38518;53.164;5.430;2023-03-04T06:21:55;5.80;99.90
51619;DHT22;38518;53.164;5.430;2023-03-04T06:24:21;5.70;99.90
51619;DHT22;38518;53.164;5.430;2023-03-04T06:26:47;5.90;99.90
51619;DHT22;38518;53.164;5.430;2023-03-04T06:29:13;5.70;99.90
51619;DHT22;38518;53.164;5.430;2023-03-04T06:31:39;5.60;99.90
51619;DHT22;38518;53.164;5.430;2023-03-04T06:34:07;6.80;99.90
51619;DHT22;38518;53.164;5.430;2023-03-04T06:36:33;5.80;99.90
51619;DHT22;38518;53.164;5.430;2023-03-04T06:39:05;5.90;99.90
51619;DHT22;38518;53.164;5.430;2023-03-04T06:41:31;5.60;99.90
51619;DHT22;38518;53.164;5.430;2023-03-04T06:43:57;5.60;99.90
51619;DHT22;38518;53.164;5.430;2023-03-04T06:46:23;5.80;99.90
51619;DHT22;38518;53.164;5.430;2023-03-04T06:48:49;6.70;99.90
51619;DHT22;38518;53.164;5.430;2023-03-04T06:51:15;6.10;99.90
51619;DHT22;38518;53.164;5.430;2023-03-04T06:53:41;6.50;99.90
51619;DHT22;38518;53.164;5.430;2023-03-04T06:56:09;5.60;99.90
51619;DHT22;38518;53.164;5.430;2023-03-04T06:58:35;6.10;99.90
51619;DHT22;38518;53.164;5.430;2023-03-04T07:01:22;6.40;99.90
51619;DHT22;38518;53.164;5.430;2023-03-04T07:03:49;5.90;99.90
51619;DHT22;38518;53.164;5.430;2023-03-04T07:06:17;6.10;99.90
51619;DHT22;38518;53.164;5.430;2023-03-04T07:09:01;6.30;99.90
51619;DHT22;38518;53.164;5.430;2023-03-04T07:11:27;6.00;99.90
51619;DHT22;38518;53.164;5.430;2023-03-04T07:13:55;6.40;99.90
51619;DHT22;38518;53.164;5.430;2023-03-04T07:16:22;6.80;99.90
51619;DHT22;38518;53.164;5.430;2023-03-04T07:18:48;6.10;99.90
51619;DHT22;38518;53.164;5.430;2023-03-04T07:21:15;6.20;99.90
51619;DHT22;38518;53.164;5.430;2023-03-04T07:23:41;6.30;99.90
51619;DHT22;38518;53.164;5.430;2023-03-04T07:26:07;6.30;99.90
51619;DHT22;38518;53.164;5.430;2023-03-04T07:28:34;6.60;99.90
51619;DHT22;38518;53.164;5.430;2023-03-04T07:31:19;6.40;99.90
51619;DHT22;38518;53.164;5.430;2023-03-04T07:33:46;6.10;99.90
51619;DHT22;38518;53.164;5.430;2023-03-04T07:36:11;6.20;99.90
51619;DHT22;38518;53.164;5.430;2023-03-04T07:38:45;6.10;99.90
51619;DHT22;38518;53.164;5.430;2023-03-04T07:41:12;6.10;99.90
51619;DHT22;38518;53.164;5.430;2023-03-04T07:43:38;6.10;99.90
51619;DHT22;38518;53.164;5.430;2023-03-04T07:46:05;5.60;99.90
51619;DHT22;38518;53.164;5.430;2023-03-04T07:48:31;6.10;99.90
51619;DHT22;38518;53.164;5.430;2023-03-04T07:51:03;6.10;99.90
51619;DHT22;38518;53.164;5.430;2023-03-04T07:53:31;6.10;99.90
51619;DHT22;38518;53.164;5.430;2023-03-04T07:55:57;6.50;99.90
51619;DHT22;38518;53.164;5.430;2023-03-04T07:58:23;6.10;99.90
51619;DHT22;38518;53.164;5.430;2023-03-04T08:00:49;6.10;99.90
51619;DHT22;38518;53.164;5.430;2023-03-04T08:03:15;6.40;99.90
51619;DHT22;38518;53.164;5.430;2023-03-04T08:05:40;6.30;99.90
51619;DHT22;38518;53.164;5.430;2023-03-04T08:08:09;7.30;99.90
51619;DHT22;38518;53.164;5.430;2023-03-04T08:10:35;6.50;99.90
51619;DHT22;38518;53.164;5.430;2023-03-04T08:13:01;6.70;99.90
51619;DHT22;38518;53.164;5.430;2023-03-04T08:15:27;7.10;99.90
51619;DHT22;38518;53.164;5.430;2023-03-04T08:17:52;7.90;99.90
51619;DHT22;38518;53.164;5.430;2023-03-04T08:20:18;7.10;99.90
51619;DHT22;38518;53.164;5.430;2023-03-04T08:22:44;7.90;99.90
51619;DHT22;38518;53.164;5.430;2023-03-04T08:25:10;7.70;99.90
51619;DHT22;38518;53.164;5.430;2023-03-04T08:27:36;7.60;99.90
51619;DHT22;38518;53.164;5.430;2023-03-04T08:30:04;5.70;99.90
51619;DHT22;38518;53.164;5.430;2023-03-04T08:32:29;7.30;99.90
51619;DHT22;38518;53.164;5.430;2023-03-04T08:34:55;7.90;99.90
51619;DHT22;38518;53.164;5.430;2023-03-04T08:37:22;7.00;99.90
51619;DHT22;38518;53.164;5.430;2023-03-04T08:39:47;6.90;99.90
51619;DHT22;38518;53.164;5.430;2023-03-04T08:42:13;7.10;99.90
51619;DHT22;38518;53.164;5.430;2023-03-04T08:44:40;7.20;99.90
51619;DHT22;38518;53.164;5.430;2023-03-04T08:47:06;7.00;99.90
51619;DHT22;38518;53.164;5.430;2023-03-04T08:49:34;7.20;99.90
51619;DHT22;38518;53.164;5.430;2023-03-04T08:52:00;7.40;99.90
51619;DHT22;38518;53.164;5.430;2023-03-04T08:54:26;7.60;99.90
51619;DHT22;38518;53.164;5.430;2023-03-04T08:56:52;8.70;99.90
51619;DHT22;38518;53.164;5.430;2023-03-04T08:59:18;8.80;99.90
51619;DHT22;38518;53.164;5.430;2023-03-04T09:01:43;9.20;99.90
51619;DHT22;38518;53.164;5.430;2023-03-04T09:04:09;9.40;99.90
51619;DHT22;38518;53.164;5.430;2023-03-04T09:06:35;9.20;95.10
51619;DHT22;38518;53.164;5.430;2023-03-04T09:09:01;8.90;74.00
51619;DHT22;38518;53.164;5.430;2023-03-04T09:11:27;8.80;60.90
51619;DHT22;38518;53.164;5.430;2023-03-04T09:13:53;8.50;59.30
51619;DHT22;38518;53.164;5.430;2023-03-04T09:16:18;8.20;58.60
51619;DHT22;38518;53.164;5.430;2023-03-04T09:18:44;8.00;70.70
51619;DHT22;38518;53.164;5.430;2023-03-04T09:21:10;7.90;79.90
51619;DHT22;38518;53.164;5.430;2023-03-04T09:23:36;7.80;75.80
51619;DHT22;38518;53.164;5.430;2023-03-04T09:26:31;7.70;70.30
51619;DHT22;38518;53.164;5.430;2023-03-04T09:28:59;7.90;61.70
51619;DHT22;38518;53.164;5.430;2023-03-04T09:31:26;7.60;59.10
51619;DHT22;38518;53.164;5.430;2023-03-04T09:33:52;7.40;63.90
51619;DHT22;38518;53.164;5.430;2023-03-04T09:36:19;7.40;50.90
51619;DHT22;38518;53.164;5.430;2023-03-04T09:38:45;7.50;51.60
51619;DHT22;38518;53.164;5.430;2023-03-04T09:44:14;7.30;20.70
51619;DHT22;38518;53.164;5.430;2023-03-04T09:46:40;7.30;14.00
51619;DHT22;38518;53.164;5.430;2023-03-04T09:49:10;7.30;20.10
51619;DHT22;38518;53.164;5.430;2023-03-04T09:51:50;7.30;11.60
51619;DHT22;38518;53.164;5.430;2023-03-04T09:54:36;5.60;2.80
51619;DHT22;38518;53.164;5.430;2023-03-04T09:57:26;6.40;1.00
51619;DHT22;38518;53.164;5.430;2023-03-04T10:00:06;7.30;1.00
51619;DHT22;38518;53.164;5.430;2023-03-04T10:05:23;6.00;1.00
51619;DHT22;38518;53.164;5.430;2023-03-04T10:11:01;7.60;1.00
51619;DHT22;38518;53.164;5.430;2023-03-04T10:13:39;7.30;1.00
51619;DHT22;38518;53.164;5.430;2023-03-04T10:16:09;7.40;1.00
51619;DHT22;38518;53.164;5.430;2023-03-04T10:18:43;7.30;1.00
51619;DHT22;38518;53.164;5.430;2023-03-04T10:21:32;7.40;1.00
51619;DHT22;38518;53.164;5.430;2023-03-04T10:24:11;7.50;1.00
51619;DHT22;38518;53.164;5.430;2023-03-04T10:26:38;7.50;1.00
51619;DHT22;38518;53.164;5.430;2023-03-04T10:29:04;7.50;1.00
51619;DHT22;38518;53.164;5.430;2023-03-04T10:31:33;7.60;1.00
51619;DHT22;38518;53.164;5.430;2023-03-04T10:34:02;7.70;1.00
51619;DHT22;38518;53.164;5.430;2023-03-04T10:39:00;7.70;1.00
51619;DHT22;38518;53.164;5.430;2023-03-04T10:41:29;7.80;1.00
51619;DHT22;38518;53.164;5.430;2023-03-04T10:46:40;7.70;1.00
51619;DHT22;38518;53.164;5.430;2023-03-04T10:49:08;7.90;1.00
51619;DHT22;38518;53.164;5.430;2023-03-04T10:51:45;7.60;1.00
51619;DHT22;38518;53.164;5.430;2023-03-04T10:54:46;7.90;1.00
51619;DHT22;38518;53.164;5.430;2023-03-04T10:57:27;7.90;1.00
51619;DHT22;38518;53.164;5.430;2023-03-04T10:59:58;8.00;1.00
51619;DHT22;38518;53.164;5.430;2023-03-04T11:02:32;7.60;5.00
51619;DHT22;38518;53.164;5.430;2023-03-04T11:05:25;7.70;15.20
51619;DHT22;38518;53.164;5.430;2023-03-04T11:07:59;7.80;31.90
51619;DHT22;38518;53.164;5.430;2023-03-04T11:13:11;7.70;38.50
51619;DHT22;38518;53.164;5.430;2023-03-04T11:16:04;8.10;13.50
51619;DHT22;38518;53.164;5.430;2023-03-04T11:21:02;9.50;1.00
51619;DHT22;38518;53.164;5.430;2023-03-04T11:29:40;11.40;1.00
51619;DHT22;38518;53.164;5.430;2023-03-04T11:32:17;12.10;1.00
51619;DHT22;38518;53.164;5.430;2023-03-04T11:34:52;12.60;1.00
51619;DHT22;38518;53.164;5.430;2023-03-04T11:39:54;14.40;1.00
51619;DHT22;38518;53.164;5.430;2023-03-04T11:42:51;14.90;1.00
51619;DHT22;38518;53.164;5.430;2023-03-04T11:45:36;15.40;1.00
51619;DHT22;38518;53.164;5.430;2023-03-04T11:51:29;15.10;1.00
51619;DHT22;38518;53.164;5.430;2023-03-04T11:54:19;13.30;1.00
51619;DHT22;38518;53.164;5.430;2023-03-04T12:03:23;10.40;1.00
51619;DHT22;38518;53.164;5.430;2023-03-04T12:08:38;9.40;1.00
51619;DHT22;38518;53.164;5.430;2023-03-04T12:11:29;9.70;1.00
51619;DHT22;38518;53.164;5.430;2023-03-04T12:17:19;9.80;1.00
51619;DHT22;38518;53.164;5.430;2023-03-04T12:20:07;9.80;1.00
51619;DHT22;38518;53.164;5.430;2023-03-04T12:22:42;9.80;1.00
51619;DHT22;38518;53.164;5.430;2023-03-04T12:25:42;9.90;1.00
51619;DHT22;38518;53.164;5.430;2023-03-04T12:31:33;9.80;1.00
51619;DHT22;38518;53.164;5.430;2023-03-04T12:40:00;11.20;1.00
51619;DHT22;38518;53.164;5.430;2023-03-04T12:45:38;11.90;1.00
51619;DHT22;38518;53.164;5.430;2023-03-04T12:48:41;11.80;1.00
51619;DHT22;38518;53.164;5.430;2023-03-04T12:51:27;11.40;1.00
51619;DHT22;38518;53.164;5.430;2023-03-04T12:56:51;10.50;1.00
51619;DHT22;38518;53.164;5.430;2023-03-04T12:59:20;10.00;1.00
51619;DHT22;38518;53.164;5.430;2023-03-04T13:02:13;9.70;1.00
51619;DHT22;38518;53.164;5.430;2023-03-04T13:10:22;9.20;1.00
51619;DHT22;38518;53.164;5.430;2023-03-04T13:12:50;9.20;1.00
51619;DHT22;38518;53.164;5.430;2023-03-04T13:18:02;9.60;1.00
51619;DHT22;38518;53.164;5.430;2023-03-04T13:21:04;11.20;1.00
51619;DHT22;38518;53.164;5.430;2023-03-04T13:23:30;12.80;1.00
51619;DHT22;38518;53.164;5.430;2023-03-04T13:28:27;14.20;1.00
51619;DHT22;38518;53.164;5.430;2023-03-04T13:38:35;11.60;1.00
51619;DHT22;38518;53.164;5.430;2023-03-04T13:41:21;10.80;1.00
51619;DHT22;38518;53.164;5.430;2023-03-04T13:43:54;10.30;1.00
51619;DHT22;38518;53.164;5.430;2023-03-04T13:56:45;9.20;1.00
51619;DHT22;38518;53.164;5.430;2023-03-04T13:59:26;8.90;1.00
51619;DHT22;38518;53.164;5.430;2023-03-04T14:02:12;8.80;1.00
51619;DHT22;38518;53.164;5.430;2023-03-04T14:04:43;8.90;1.00
51619;DHT22;38518;53.164;5.430;2023-03-04T14:09:54;10.70;1.00
51619;DHT22;38518;53.164;5.430;2023-03-04T14:12:20;11.10;1.00
51619;DHT22;38518;53.164;5.430;2023-03-04T14:14:56;12.00;1.00
51619;DHT22;38518;53.164;5.430;2023-03-04T14:17:27;12.10;1.00
51619;DHT22;38518;53.164;5.430;2023-03-04T14:19:54;11.60;1.00
51619;DHT22;38518;53.164;5.430;2023-03-04T14:22:29;10.80;1.00
51619;DHT22;38518;53.164;5.430;2023-03-04T14:27:32;9.30;1.00
51619;DHT22;38518;53.164;5.430;2023-03-04T14:30:02;8.80;1.00
51619;DHT22;38518;53.164;5.430;2023-03-04T14:32:28;8.60;1.00
51619;DHT22;38518;53.164;5.430;2023-03-04T14:35:05;8.60;1.00
51619;DHT22;38518;53.164;5.430;2023-03-04T14:37:53;8.60;1.00
51619;DHT22;38518;53.164;5.430;2023-03-04T14:40:25;9.30;1.00
51619;DHT22;38518;53.164;5.430;2023-03-04T14:42:56;10.20;1.00
51619;DHT22;38518;53.164;5.430;2023-03-04T14:45:24;10.80;1.00
51619;DHT22;38518;53.164;5.430;2023-03-04T14:47:53;11.80;1.00
51619;DHT22;38518;53.164;5.430;2023-03-04T14:50:20;12.00;1.00
51619;DHT22;38518;53.164;5.430;2023-03-04T14:53:02;11.90;1.00
51619;DHT22;38518;53.164;5.430;2023-03-04T14:55:28;12.10;1.00
51619;DHT22;38518;53.164;5.430;2023-03-04T14:58:07;12.80;1.00
51619;DHT22;38518;53.164;5.430;2023-03-04T15:00:35;13.20;1.00
51619;DHT22;38518;53.164;5.430;2023-03-04T15:03:04;13.30;1.00
51619;DHT22;38518;53.164;5.430;2023-03-04T15:05:35;12.30;1.00
51619;DHT22;38518;53.164;5.430;2023-03-04T15:11:20;10.20;1.00
51619;DHT22;38518;53.164;5.430;2023-03-04T15:13:49;9.30;1.00
51619;DHT22;38518;53.164;5.430;2023-03-04T15:16:17;8.90;1.00
51619;DHT22;38518;53.164;5.430;2023-03-04T15:23:45;8.40;1.00
51619;DHT22;38518;53.164;5.430;2023-03-04T15:26:12;8.80;1.00
51619;DHT22;38518;53.164;5.430;2023-03-04T15:28:39;9.90;1.00
51619;DHT22;38518;53.164;5.430;2023-03-04T15:31:20;10.80;1.00
51619;DHT22;38518;53.164;5.430;2023-03-04T15:33:46;11.80;1.00
51619;DHT22;38518;53.164;5.430;2023-03-04T15:36:18;11.30;1.00
51619;DHT22;38518;53.164;5.430;2023-03-04T15:38:46;10.90;1.00
51619;DHT22;38518;53.164;5.430;2023-03-04T15:41:19;11.30;1.00
51619;DHT22;38518;53.164;5.430;2023-03-04T15:43:46;9.50;1.00
51619;DHT22;38518;53.164;5.430;2023-03-04T15:46:12;8.80;1.00
51619;DHT22;38518;53.164;5.430;2023-03-04T15:48:37;8.60;1.00
51619;DHT22;38518;53.164;5.430;2023-03-04T15:51:06;8.40;1.00
51619;DHT22;38518;53.164;5.430;2023-03-04T15:53:38;8.40;1.00
51619;DHT22;38518;53.164;5.430;2023-03-04T15:56:11;8.20;1.00
51619;DHT22;38518;53.164;5.430;2023-03-04T15:58:37;8.00;1.00
51619;DHT22;38518;53.164;5.430;2023-03-04T16:01:04;7.90;1.00
51619;DHT22;38518;53.164;5.430;2023-03-04T16:03:30;7.70;1.00
51619;DHT22;38518;53.164;5.430;2023-03-04T16:05:57;6.60;1.00
51619;DHT22;38518;53.164;5.430;2023-03-04T16:08:23;7.50;1.00
51619;DHT22;38518;53.164;5.430;2023-03-04T16:10:50;7.30;1.00
51619;DHT22;38518;53.164;5.430;2023-03-04T16:13:20;7.10;1.00
51619;DHT22;38518;53.164;5.430;2023-03-04T16:15:46;7.00;1.00
51619;DHT22;38518;53.164;5.430;2023-03-04T16:18:14;6.90;1.00
51619;DHT22;38518;53.164;5.430;2023-03-04T16:20:43;6.70;1.00
51619;DHT22;38518;53.164;5.430;2023-03-04T16:23:13;6.50;1.00
51619;DHT22;38518;53.164;5.430;2023-03-04T16:25:43;6.80;1.00
51619;DHT22;38518;53.164;5.430;2023-03-04T16:28:10;6.40;1.00
51619;DHT22;38518;53.164;5.430;2023-03-04T16:30:36;6.40;1.00
51619;DHT22;38518;53.164;5.430;2023-03-04T16:33:02;6.20;1.00
51619;DHT22;38518;53.164;5.430;2023-03-04T16:35:28;6.20;1.00
51619;DHT22;38518;53.164;5.430;2023-03-04T16:37:54;6.20;1.00
51619;DHT22;38518;53.164;5.430;2023-03-04T16:40:26;6.70;1.00
51619;DHT22;38518;53.164;5.430;2023-03-04T16:42:52;6.10;1.00
51619;DHT22;38518;53.164;5.430;2023-03-04T16:45:21;6.40;1.00
51619;DHT22;38518;53.164;5.430;2023-03-04T16:47:47;5.30;1.00
51619;DHT22;38518;53.164;5.430;2023-03-04T16:50:19;6.10;1.00
51619;DHT22;38518;53.164;5.430;2023-03-04T16:52:47;6.20;1.00
51619;DHT22;38518;53.164;5.430;2023-03-04T16:55:24;6.10;1.00
51619;DHT22;38518;53.164;5.430;2023-03-04T16:57:52;6.10;1.00
51619;DHT22;38518;53.164;5.430;2023-03-04T17:00:20;6.00;1.00
51619;DHT22;38518;53.164;5.430;2023-03-04T17:02:56;6.00;1.00
51619;DHT22;38518;53.164;5.430;2023-03-04T17:05:23;6.00;1.00
51619;DHT22;38518;53.164;5.430;2023-03-04T17:07:50;5.80;1.00
51619;DHT22;38518;53.164;5.430;2023-03-04T17:10:16;5.80;1.00
51619;DHT22;38518;53.164;5.430;2023-03-04T17:12:42;5.70;1.00
51619;DHT22;38518;53.164;5.430;2023-03-04T17:15:13;4.70;1.00
51619;DHT22;38518;53.164;5.430;2023-03-04T17:17:40;5.70;1.00
51619;DHT22;38518;53.164;5.430;2023-03-04T17:20:08;5.70;1.00
51619;DHT22;38518;53.164;5.430;2023-03-04T17:22:34;5.70;1.00
51619;DHT22;38518;53.164;5.430;2023-03-04T17:25:00;5.50;1.00
51619;DHT22;38518;53.164;5.430;2023-03-04T17:27:28;5.80;1.00
51619;DHT22;38518;53.164;5.430;2023-03-04T17:29:54;5.50;1.00
51619;DHT22;38518;53.164;5.430;2023-03-04T17:32:20;5.50;1.00
51619;DHT22;38518;53.164;5.430;2023-03-04T17:34:46;5.40;1.00
51619;DHT22;38518;53.164;5.430;2023-03-04T17:37:12;5.50;1.00
51619;DHT22;38518;53.164;5.430;2023-03-04T17:39:38;5.40;1.00
51619;DHT22;38518;53.164;5.430;2023-03-04T17:42:05;5.50;1.00
51619;DHT22;38518;53.164;5.430;2023-03-04T17:44:31;5.40;1.00
51619;DHT22;38518;53.164;5.430;2023-03-04T17:46:56;5.50;1.00
51619;DHT22;38518;53.164;5.430;2023-03-04T17:49:23;5.40;1.00
51619;DHT22;38518;53.164;5.430;2023-03-04T17:51:49;5.40;1.50